Casper-Natrona County International Airport
KCPR : now visible

Airfield :











YOU CAN JOIN US ON...

 
LOGIN :

Register | Disclaimer

   EN    FR    IT 

 









Legend :    VFR   Marginal VFR   IFR   Intensive IFR   Very Intensive IFR
Visi :
Ceiling :
>= 8 km
>= 3000ft
5 to 8 km
1000 to 3000 ft
1500m to 5 km
500 to 1000 ft
800 to 1500m
200 to 500 ft
< 800m
< 200 ft
Symbols :   Thunderstorms  Fog  Heavy snow  Heavy precipitations  Wind > 20 kt






- Airport Elevation : 5350 ft
- IATA code : CPR


KCPR - Casper-Natrona County International

CURRENT METAR :
  • 042353Z AUTO 34012KT 10SM VCTS BKN120 27/05 A3006 RMK AO2 LTG DSNT E AND SE AND NW PRESRR SLP118 T02720050 10333 20272 55002

EXPIRED METARs :
  • 042349Z AUTO 35009KT 10SM SCT120 27/05 A3006 RMK AO2 LTG DSNT E AND SE
  • 042334Z AUTO 05009KT 10SM VCTS FEW120 31/04 A3004 RMK AO2 LTG DSNT SE AND W T03110044
  • 042253Z AUTO 05010G21KT 10SM CLR 32/06 A3006 RMK AO2 LTG DSNT NW SLP107 T03170056
  • 042153Z 35010G17KT 10SM FEW080 31/07 A3007 RMK AO2 SLP115 T03060067

TAF KCPR
Valid from the 05 at 00:00 until the 06 at 00:00 UTC


042331Z 0500/0524 03012G18KT P6SM VCTS SCT100CB
FM050200 15010KT P6SM SCT150
FM050600 VRB06KT P6SM SKC
FM052000 01009KT P6SM FEW150
KZDV FIR / North America



MET'MAP, your aeronautical weather chart ! - Copyright ORBIFLY December 2007 - Disclaimer

ORBIFLY MET'MAP TEAM :

Programming & Development : Alexandra Zaïnal
Concept & original design : Baudouin d'Aumeries
Assistance for programming : Marc-Olivier Méhu
Technical & hardware support : Manuel Goepfert

Contact : metmap@orbifly.com




SOURCES & CREDITS :

   NOAA       Earth
Advisory